Terminal Aerodrome Forecast
Issued by NWS

Home | Current Version | Previous Version | Graphics & Text | Print | Product List | Glossary Off
Versions: 1 2 3 4 5 6 7 8 9 10 11 12 13 14 15

000
FTUS43 KDDC 242124 AAA
TAFHYS
TAF AMD
KHYS 242124Z 2421/2518 33022G26KT P6SM -RA VCSH SCT009 BKN050
      OVC060
      TEMPO 2421/2422 4SM -SHRA OVC008
     FM242200 34015KT P6SM VCSH OVC020
     FM251300 33010KT P6SM BKN020 PROB30 2513/2515 4SM -SHRA OVC015
     FM251500 34010KT P6SM BKN015 PROB30 2515/2518 4SM -SHRA OVC008=

USA.gov is the U.S. government's official web portal to all federal, state and local government web resources and services.